createdAt,value
2018-09-14T14:44:59.676Z,996.28
2018-09-14T14:45:59.665Z,996.28
2018-09-14T14:47:53.308Z,996.31
2018-09-14T14:48:53.255Z,996.27
2018-09-14T14:49:52.904Z,996.32
2018-09-14T14:50:52.592Z,996.24
2018-09-14T14:51:52.964Z,996.25
2018-09-14T14:52:52.976Z,996.26
2018-09-14T14:53:55.605Z,996.25
2018-09-14T14:54:53.010Z,996.26
2018-09-14T14:55:53.355Z,996.23
2018-09-14T14:56:52.617Z,996.22
2018-09-14T14:57:52.670Z,996.19
2018-09-14T14:58:53.032Z,996.18
2018-09-14T14:59:52.828Z,996.18
2018-09-14T15:00:53.741Z,996.13
2018-09-14T15:01:53.537Z,996.18
2018-09-14T15:02:52.804Z,996.17
2018-09-14T15:03:52.478Z,996.15
2018-09-14T15:04:52.687Z,996.14
2018-09-14T15:05:52.697Z,996.13
2018-09-14T15:06:52.952Z,996.12
2018-09-14T15:07:52.818Z,996.13
2018-09-14T15:08:52.921Z,996.08
2018-09-14T15:09:52.569Z,996.09
2018-09-14T15:10:52.783Z,996.07
2018-09-14T15:11:52.936Z,996.06
2018-09-14T15:12:52.844Z,996.06
2018-09-14T15:13:52.874Z,996.11
2018-09-14T15:14:52.874Z,996.08
2018-09-14T15:15:53.083Z,996.06
2018-09-14T15:16:53.730Z,996.09
2018-09-14T15:17:52.661Z,996.04
2018-09-14T15:18:53.198Z,996.07
2018-09-14T15:19:52.664Z,996.02
2018-09-14T15:20:52.797Z,996.04
2018-09-14T15:21:52.378Z,996.00
2018-09-14T15:22:52.710Z,996.01
2018-09-14T15:23:52.782Z,996.04
2018-09-14T15:24:53.477Z,996.03
2018-09-14T15:25:52.503Z,995.95
2018-09-14T15:26:52.337Z,995.97
2018-09-14T15:27:52.299Z,995.94
2018-09-14T15:28:52.557Z,995.94
2018-09-14T15:29:52.356Z,995.94
2018-09-14T15:30:52.589Z,995.93
2018-09-14T15:31:52.305Z,995.95
2018-09-14T15:32:52.577Z,995.96
2018-09-14T15:33:52.640Z,995.92
2018-09-14T15:34:55.120Z,995.91
2018-09-14T15:35:52.233Z,995.86
2018-09-14T15:36:53.142Z,995.87
2018-09-14T15:37:52.136Z,995.90
2018-09-14T15:38:52.125Z,995.91
2018-09-14T15:39:52.116Z,995.92
2018-09-14T15:40:52.110Z,995.97
2018-09-14T15:41:52.099Z,995.96
2018-09-14T15:42:52.094Z,995.93
2018-09-14T15:43:52.091Z,995.91
2018-09-14T15:44:52.081Z,995.94
2018-09-14T15:45:52.072Z,995.97
2018-09-14T15:46:52.068Z,995.99
2018-09-14T15:47:52.065Z,995.92
2018-09-14T15:48:52.051Z,995.91
2018-09-14T15:49:52.037Z,995.95
2018-09-14T15:50:52.037Z,995.91
2018-09-14T15:51:52.027Z,995.95
2018-09-14T15:52:52.024Z,996.00
2018-09-14T15:53:52.019Z,995.93
2018-09-14T15:54:52.005Z,995.99
2018-09-14T15:55:52.001Z,995.94
2018-09-14T15:56:51.994Z,995.92
2018-09-14T15:57:52.026Z,995.96
2018-09-14T15:58:51.978Z,995.92
2018-09-14T15:59:51.969Z,995.89
2018-09-14T16:00:51.966Z,995.91
2018-09-14T16:01:51.952Z,995.89
2018-09-14T16:02:51.950Z,995.91
2018-09-14T16:03:51.938Z,995.89
2018-09-14T16:04:51.933Z,995.91
2018-09-14T16:05:51.928Z,995.90
2018-09-14T16:06:51.922Z,995.90
2018-09-14T16:07:51.910Z,995.91
2018-09-14T16:08:51.910Z,995.95
2018-09-14T16:09:51.903Z,995.93
2018-09-14T16:10:51.893Z,995.89
2018-09-14T16:11:51.885Z,995.92
2018-09-14T16:12:51.877Z,995.85
2018-09-14T16:13:51.880Z,995.92
2018-09-14T16:14:51.866Z,995.91
2018-09-14T16:15:51.857Z,995.93
2018-09-14T16:16:51.846Z,995.93
2018-09-14T16:17:51.845Z,995.94
2018-09-14T16:18:51.849Z,995.96
2018-09-14T16:19:51.831Z,995.95
2018-09-14T16:20:51.818Z,995.99
2018-09-14T16:21:51.815Z,996.00
2018-09-14T16:22:51.804Z,995.95
2018-09-14T16:23:51.796Z,996.01
2018-09-14T16:24:51.796Z,996.05
2018-09-14T16:25:51.782Z,996.03
2018-09-14T16:26:51.776Z,996.04
2018-09-14T16:27:51.769Z,996.04
2018-09-14T16:28:51.761Z,996.05
2018-09-14T16:29:51.753Z,996.04
2018-09-14T16:30:51.748Z,996.03
2018-09-14T16:31:51.767Z,996.04
2018-09-14T16:32:51.729Z,996.02
2018-09-14T16:33:51.724Z,996.02
2018-09-14T16:34:51.716Z,996.01
2018-09-14T16:35:51.712Z,996.03
2018-09-14T16:36:51.701Z,996.01
2018-09-14T16:37:51.698Z,996.01
2018-09-14T16:38:51.690Z,996.01
2018-09-14T16:39:51.687Z,996.02
2018-09-14T16:40:51.675Z,996.02
2018-09-14T16:41:51.668Z,996.03
2018-09-14T16:42:51.658Z,996.04
2018-09-14T16:43:51.651Z,996.03
2018-09-14T16:44:51.650Z,996.01
2018-09-14T16:45:51.635Z,996.03
2018-09-14T16:46:51.631Z,996.04
2018-09-14T16:47:51.627Z,996.06
2018-09-14T16:48:51.613Z,996.06
2018-09-14T16:49:51.611Z,996.04
2018-09-14T16:50:51.603Z,996.02
2018-09-14T16:51:51.597Z,996.04
2018-09-14T16:52:51.582Z,996.07
2018-09-14T16:53:51.574Z,996.06
2018-09-14T16:54:51.567Z,996.09
2018-09-14T16:55:51.558Z,996.07
2018-09-14T16:56:51.557Z,996.10
2018-09-14T16:57:51.555Z,996.13
2018-09-14T16:58:51.543Z,996.11
2018-09-14T16:59:51.535Z,996.13
2018-09-14T17:00:51.535Z,996.12
2018-09-14T17:01:51.521Z,996.12
2018-09-14T17:02:51.512Z,996.14
2018-09-14T17:03:51.507Z,996.15
2018-09-14T17:04:51.504Z,996.15
2018-09-14T17:05:51.493Z,996.16
2018-09-14T17:06:51.483Z,996.16
2018-09-14T17:07:51.477Z,996.12
2018-09-14T17:08:51.466Z,996.15
2018-09-14T17:09:51.461Z,996.15
2018-09-14T17:10:51.459Z,996.18
2018-09-14T17:11:51.459Z,996.17
2018-09-14T17:12:51.439Z,996.20
2018-09-14T17:13:51.429Z,996.18
2018-09-14T17:14:51.425Z,996.22
2018-09-14T17:15:51.417Z,996.22
2018-09-14T17:16:51.412Z,996.25
2018-09-14T17:17:51.412Z,996.21
2018-09-14T17:18:51.397Z,996.23
2018-09-14T17:19:51.382Z,996.24
2018-09-14T17:20:51.384Z,996.22
2018-09-14T17:21:51.367Z,996.22
2018-09-14T17:22:51.366Z,996.20
2018-09-14T17:23:51.365Z,996.24
2018-09-14T17:24:51.352Z,996.20
2018-09-14T17:25:51.344Z,996.24
2018-09-14T17:26:51.336Z,996.23
2018-09-14T17:27:51.330Z,996.22
2018-09-14T17:28:51.321Z,996.22
2018-09-14T17:29:51.315Z,996.21
2018-09-14T17:30:51.313Z,996.28
2018-09-14T17:31:51.303Z,996.28
2018-09-14T17:32:51.303Z,996.27
2018-09-14T17:33:51.285Z,996.25
2018-09-14T17:34:51.276Z,996.29
2018-09-14T17:35:51.271Z,996.27
2018-09-14T17:36:51.263Z,996.28
2018-09-14T17:37:51.267Z,996.27
2018-09-14T17:38:51.249Z,996.29
2018-09-14T17:39:51.245Z,996.26
2018-09-14T17:40:51.233Z,996.26
2018-09-14T17:41:51.225Z,996.24
2018-09-14T17:42:51.224Z,996.23
2018-09-14T17:43:51.214Z,996.29
2018-09-14T17:44:51.206Z,996.27
2018-09-14T17:45:51.197Z,996.32
2018-09-14T17:46:51.186Z,996.31
2018-09-14T17:47:51.184Z,996.30
2018-09-14T17:48:51.170Z,996.28
2018-09-14T17:49:51.168Z,996.32
2018-09-14T17:50:51.166Z,996.31
2018-09-14T17:51:51.157Z,996.32
2018-09-14T17:52:51.153Z,996.30
2018-09-14T17:53:51.138Z,996.34
2018-09-14T17:54:51.127Z,996.30
2018-09-14T17:55:51.123Z,996.31
2018-09-14T17:56:51.117Z,996.31
2018-09-14T17:57:51.146Z,996.31
2018-09-14T17:58:51.134Z,996.28
2018-09-14T17:59:51.096Z,996.30
2018-09-14T18:00:51.122Z,996.31
2018-09-14T18:01:51.078Z,996.27
2018-09-14T18:02:51.101Z,996.31
2018-09-14T18:03:51.073Z,996.29
2018-09-14T18:04:51.061Z,996.26
2018-09-14T18:05:51.049Z,996.27
2018-09-14T18:06:51.043Z,996.26
2018-09-14T18:07:51.035Z,996.29
2018-09-14T18:08:51.040Z,996.28
2018-09-14T18:09:51.024Z,996.29
2018-09-14T18:10:51.015Z,996.33
2018-09-14T18:11:51.004Z,996.38
2018-09-14T18:12:50.997Z,996.33
2018-09-14T18:13:50.993Z,996.37
2018-09-14T18:14:50.984Z,996.39
2018-09-14T18:15:50.976Z,996.41
2018-09-14T18:16:50.970Z,996.42
2018-09-14T18:17:50.962Z,996.45
2018-09-14T18:18:50.951Z,996.40
2018-09-14T18:19:50.947Z,996.44
2018-09-14T18:20:50.937Z,996.43
2018-09-14T18:21:50.941Z,996.42
2018-09-14T18:22:50.923Z,996.41
2018-09-14T18:23:50.917Z,996.44
2018-09-14T18:24:50.914Z,996.40
2018-09-14T18:25:50.903Z,996.43
2018-09-14T18:26:50.895Z,996.42
2018-09-14T18:27:51.004Z,996.42
2018-09-14T18:28:50.880Z,996.42
2018-09-14T18:29:50.875Z,996.45
2018-09-14T18:30:50.857Z,996.45
2018-09-14T18:31:50.857Z,996.43
2018-09-14T18:32:50.849Z,996.44
2018-09-14T18:33:50.845Z,996.49
2018-09-14T18:34:50.832Z,996.47
2018-09-14T18:35:50.912Z,996.44
2018-09-14T18:36:50.821Z,996.46
2018-09-14T18:37:50.814Z,996.48
2018-09-14T18:38:50.807Z,996.47
2018-09-14T18:39:50.798Z,996.51
2018-09-14T18:40:50.793Z,996.54
2018-09-14T18:41:50.784Z,996.51
2018-09-14T18:42:50.783Z,996.58
2018-09-14T18:43:50.769Z,996.57
2018-09-14T18:44:50.759Z,996.60
2018-09-14T18:45:50.754Z,996.60
2018-09-14T18:46:50.798Z,996.60
2018-09-14T18:47:50.749Z,996.60
2018-09-14T18:48:50.727Z,996.60
2018-09-14T18:49:50.725Z,996.63
2018-09-14T18:50:50.716Z,996.60
2018-09-14T18:51:50.709Z,996.60
2018-09-14T18:52:50.698Z,996.60
2018-09-14T18:53:50.696Z,996.63
2018-09-14T18:54:50.686Z,996.64
2018-09-14T18:55:50.686Z,996.66
2018-09-14T18:56:50.667Z,996.64
2018-09-14T18:57:50.660Z,996.61
2018-09-14T18:58:50.657Z,996.61
2018-09-14T18:59:50.654Z,996.66
2018-09-14T19:00:50.662Z,996.67
2018-09-14T19:01:50.638Z,996.69
2018-09-14T19:02:50.631Z,996.71
2018-09-14T19:03:50.623Z,996.73
2018-09-14T19:04:50.615Z,996.70
2018-09-14T19:05:50.606Z,996.72
2018-09-14T19:06:50.597Z,996.77
2018-09-14T19:07:50.592Z,996.71
2018-09-14T19:08:50.586Z,996.74
2018-09-14T19:09:50.580Z,996.77
2018-09-14T19:10:50.563Z,996.77
2018-09-14T19:11:50.567Z,996.77
2018-09-14T19:12:50.556Z,996.83
2018-09-14T19:13:50.550Z,996.77
2018-09-14T19:14:50.542Z,996.76
2018-09-14T19:15:50.531Z,996.73
2018-09-14T19:16:50.525Z,996.78
2018-09-14T19:17:50.523Z,996.76
2018-09-14T19:18:50.508Z,996.79
2018-09-14T19:19:50.501Z,996.80
2018-09-14T19:20:50.498Z,996.76
2018-09-14T19:21:50.488Z,996.78
2018-09-14T19:22:50.488Z,996.78
2018-09-14T19:23:50.478Z,996.80
2018-09-14T19:24:50.469Z,996.83
2018-09-14T19:25:50.455Z,996.87
2018-09-14T19:26:50.446Z,996.90
2018-09-14T19:27:50.445Z,996.93
2018-09-14T19:28:50.441Z,996.98
2018-09-14T19:29:50.426Z,996.95
2018-09-14T19:30:50.418Z,996.97
2018-09-14T19:31:50.414Z,997.00
2018-09-14T19:32:50.404Z,996.98
2018-09-14T19:33:50.402Z,996.95
2018-09-14T19:34:50.393Z,996.94
2018-09-14T19:35:50.380Z,997.04
2018-09-14T19:36:50.375Z,996.99
2018-09-14T19:37:50.367Z,996.94
2018-09-14T19:38:50.360Z,996.93
2018-09-14T19:39:50.351Z,996.94
2018-09-14T19:40:50.353Z,996.92
2018-09-14T19:41:50.341Z,996.97
2018-09-14T19:42:50.332Z,997.00
2018-09-14T19:43:50.322Z,996.97
2018-09-14T19:44:50.317Z,996.98
2018-09-14T19:45:50.308Z,996.98
2018-09-14T19:46:50.301Z,996.97
2018-09-14T19:47:50.295Z,996.99
2018-09-14T19:48:50.289Z,996.96
2018-09-14T19:49:50.281Z,996.99
2018-09-14T19:50:50.269Z,996.97
2018-09-14T19:51:50.260Z,996.93
2018-09-14T19:52:50.256Z,996.96
2018-09-14T19:53:50.250Z,996.94
2018-09-14T19:54:50.249Z,996.92
2018-09-14T19:55:50.233Z,996.95
2018-09-14T19:56:50.227Z,996.99
2018-09-14T19:57:50.217Z,996.96
2018-09-14T19:58:50.217Z,996.90
2018-09-14T19:59:50.205Z,996.88
2018-09-14T20:00:50.236Z,996.91
2018-09-14T20:01:50.188Z,996.93
2018-09-14T20:02:50.186Z,996.93
2018-09-14T20:03:50.169Z,996.90
2018-09-14T20:04:50.166Z,996.95
2018-09-14T20:05:50.157Z,996.98
2018-09-14T20:06:50.154Z,996.97
2018-09-14T20:07:50.149Z,996.99
2018-09-14T20:08:50.136Z,997.00
2018-09-14T20:09:50.133Z,997.00
2018-09-14T20:10:50.121Z,997.02
2018-09-14T20:11:50.112Z,996.99
2018-09-14T20:12:50.108Z,997.00
2018-09-14T20:13:50.090Z,997.05
2018-09-14T20:14:50.095Z,997.03
2018-09-14T20:15:50.090Z,997.07
2018-09-14T20:16:50.077Z,997.05
2018-09-14T20:17:50.156Z,997.03
2018-09-14T20:18:50.059Z,997.03
2018-09-14T20:19:50.056Z,997.00
2018-09-14T20:20:50.050Z,996.99
2018-09-14T20:21:50.042Z,996.99
2018-09-14T20:22:50.031Z,996.99
2018-09-14T20:23:50.024Z,996.99
2018-09-14T20:24:50.018Z,997.00
2018-09-14T20:25:50.006Z,996.95
2018-09-14T20:26:50.000Z,996.99
2018-09-14T20:27:49.993Z,996.98
2018-09-14T20:28:49.983Z,996.99
2018-09-14T20:29:49.974Z,997.00
2018-09-14T20:30:49.968Z,997.02
2018-09-14T20:31:49.966Z,997.00
2018-09-14T20:32:49.967Z,997.02
2018-09-14T20:33:49.951Z,997.04
2018-09-14T20:34:49.940Z,997.05
2018-09-14T20:35:49.932Z,997.02
2018-09-14T20:36:49.925Z,997.06
2018-09-14T20:37:49.919Z,996.99
2018-09-14T20:38:49.911Z,997.05
2018-09-14T20:39:49.902Z,997.06
2018-09-14T20:40:49.896Z,997.07
2018-09-14T20:41:49.885Z,997.08
2018-09-14T20:42:49.874Z,997.07
2018-09-14T20:43:49.868Z,997.09
2018-09-14T20:44:49.862Z,997.07
2018-09-14T20:45:49.854Z,997.09
2018-09-14T20:46:49.852Z,997.09
2018-09-14T20:47:49.842Z,997.08
2018-09-14T20:48:49.834Z,997.06
2018-09-14T20:49:49.829Z,997.01
2018-09-14T20:50:49.821Z,996.99
2018-09-14T20:51:49.815Z,997.03
2018-09-14T20:52:49.798Z,997.06
2018-09-14T20:53:49.797Z,997.03
2018-09-14T20:54:49.790Z,997.02
2018-09-14T20:55:49.776Z,997.02
2018-09-14T20:56:49.773Z,996.98
2018-09-14T20:57:49.775Z,996.95
2018-09-14T20:58:49.787Z,996.95
2018-09-14T20:59:49.755Z,996.98
2018-09-14T21:00:49.744Z,996.97
2018-09-14T21:01:49.745Z,996.96
2018-09-14T21:02:49.732Z,996.97
2018-09-14T21:03:49.721Z,996.95
2018-09-14T21:04:49.718Z,996.92
2018-09-14T21:05:49.707Z,996.93
2018-09-14T21:06:49.700Z,996.88
2018-09-14T21:07:49.696Z,996.86
2018-09-14T21:08:49.687Z,996.90
2018-09-14T21:09:49.675Z,996.88
2018-09-14T21:10:49.709Z,996.96
2018-09-14T21:11:49.671Z,996.87
2018-09-14T21:12:50.125Z,996.92
2018-09-14T21:13:49.650Z,996.94
2018-09-14T21:14:49.639Z,996.97
2018-09-14T21:15:49.627Z,996.96
2018-09-14T21:16:49.651Z,996.99
2018-09-14T21:17:50.038Z,996.98
2018-09-14T21:18:49.620Z,997.02
2018-09-14T21:19:49.599Z,997.02
2018-09-14T21:20:49.594Z,997.04
2018-09-14T21:21:49.589Z,997.04
2018-09-14T21:22:49.695Z,997.07
2018-09-14T21:23:49.572Z,997.05
2018-09-14T21:24:49.584Z,997.03
2018-09-14T21:25:49.722Z,997.03
2018-09-14T21:26:49.657Z,997.09
2018-09-14T21:27:49.544Z,997.10
2018-09-14T21:28:49.539Z,997.13
2018-09-14T21:29:49.529Z,997.11
2018-09-14T21:30:49.815Z,997.15
2018-09-14T21:31:49.513Z,997.14
2018-09-14T21:32:49.499Z,997.23
2018-09-14T21:33:49.513Z,997.26
2018-09-14T21:34:49.490Z,997.23
2018-09-14T21:35:49.571Z,997.30
2018-09-14T21:36:49.473Z,997.28
2018-09-14T21:37:49.470Z,997.28
2018-09-14T21:38:49.629Z,997.29
2018-09-14T21:39:49.668Z,997.33
2018-09-14T21:40:49.449Z,997.35
2018-09-14T21:41:49.442Z,997.39
2018-09-14T21:42:49.437Z,997.42
2018-09-14T21:43:49.445Z,997.41
2018-09-14T21:44:49.412Z,997.40
2018-09-14T21:45:49.410Z,997.41
2018-09-14T21:46:49.438Z,997.40
2018-09-14T21:47:49.414Z,997.41
2018-09-14T21:48:49.391Z,997.42
2018-09-14T21:49:49.377Z,997.40
2018-09-14T21:50:49.377Z,997.33
2018-09-14T21:51:49.368Z,997.35
2018-09-14T21:52:49.365Z,997.32
2018-09-14T21:53:49.471Z,997.37
2018-09-14T21:54:49.351Z,997.36
2018-09-14T21:55:49.337Z,997.34
2018-09-14T21:56:49.825Z,997.40
2018-09-14T21:57:49.319Z,997.42
2018-09-14T21:58:49.325Z,997.44
2018-09-14T21:59:49.310Z,997.46
2018-09-14T22:00:49.305Z,997.44
2018-09-14T22:01:49.297Z,997.44
2018-09-14T22:02:49.286Z,997.46
2018-09-14T22:03:49.283Z,997.47
2018-09-14T22:04:49.279Z,997.48
2018-09-14T22:05:49.258Z,997.51
2018-09-14T22:06:49.385Z,997.48
2018-09-14T22:07:49.283Z,997.53
2018-09-14T22:08:49.235Z,997.56
2018-09-14T22:09:49.239Z,997.58
2018-09-14T22:10:49.233Z,997.55
2018-09-14T22:11:49.281Z,997.53
2018-09-14T22:12:49.383Z,997.58
2018-09-14T22:13:49.206Z,997.55
2018-09-14T22:14:49.188Z,997.62
2018-09-14T22:15:49.183Z,997.58
2018-09-14T22:16:49.175Z,997.65
2018-09-14T22:17:49.166Z,997.62
2018-09-14T22:18:49.214Z,997.65
2018-09-14T22:19:49.156Z,997.60
2018-09-14T22:20:49.148Z,997.60
2018-09-14T22:21:49.137Z,997.60
2018-09-14T22:22:49.132Z,997.60
2018-09-14T22:23:49.125Z,997.62
2018-09-14T22:24:49.119Z,997.58
2018-09-14T22:25:49.117Z,997.60
2018-09-14T22:26:49.107Z,997.57
2018-09-14T22:27:49.102Z,997.56
2018-09-14T22:28:49.088Z,997.52
2018-09-14T22:29:49.078Z,997.56
2018-09-14T22:30:49.073Z,997.62
2018-09-14T22:31:49.076Z,997.64
2018-09-14T22:32:49.063Z,997.69
2018-09-14T22:33:49.051Z,997.71
2018-09-14T22:34:49.042Z,997.76
2018-09-14T22:35:49.036Z,997.70
2018-09-14T22:36:49.029Z,997.70
2018-09-14T22:37:49.023Z,997.77
2018-09-14T22:38:49.019Z,997.73
2018-09-14T22:39:48.999Z,997.77
2018-09-14T22:40:49.000Z,997.76
2018-09-14T22:41:48.991Z,997.77
2018-09-14T22:42:48.983Z,997.77
2018-09-14T22:43:48.981Z,997.78
2018-09-14T22:44:48.968Z,997.75
2018-09-14T22:45:48.964Z,997.82
2018-09-14T22:46:48.957Z,997.84
2018-09-14T22:47:48.948Z,997.87
2018-09-14T22:48:48.944Z,997.90
2018-09-14T22:49:48.930Z,997.87
2018-09-14T22:50:48.927Z,997.84
2018-09-14T22:51:48.920Z,997.82
2018-09-14T22:52:48.908Z,997.85
2018-09-14T22:53:48.897Z,997.89
2018-09-14T22:54:48.895Z,997.89
2018-09-14T22:55:48.888Z,997.91
2018-09-14T22:56:48.879Z,997.92
2018-09-14T22:57:48.873Z,997.90
2018-09-14T22:58:48.863Z,997.93
2018-09-14T22:59:48.854Z,997.96
2018-09-14T23:00:48.848Z,997.96
2018-09-14T23:01:48.839Z,997.93
2018-09-14T23:02:48.835Z,997.95
2018-09-14T23:03:48.827Z,998.00
2018-09-14T23:04:48.815Z,998.01
2018-09-14T23:05:48.811Z,998.07
2018-09-14T23:06:48.802Z,998.04
2018-09-14T23:07:48.796Z,998.08
2018-09-14T23:08:48.786Z,998.07
2018-09-14T23:09:48.780Z,998.05
2018-09-14T23:10:48.773Z,998.04
2018-09-14T23:11:48.768Z,998.04
2018-09-14T23:12:48.826Z,998.04
2018-09-14T23:13:48.777Z,998.07
2018-09-14T23:14:48.737Z,998.05
2018-09-14T23:15:48.736Z,997.99
2018-09-14T23:16:48.722Z,998.02
2018-09-14T23:17:48.726Z,997.99
2018-09-14T23:18:48.714Z,997.95
2018-09-14T23:19:48.708Z,997.94
2018-09-14T23:20:48.700Z,997.92
2018-09-14T23:21:48.701Z,997.92
2018-09-14T23:22:48.681Z,997.85
2018-09-14T23:23:48.680Z,997.87
2018-09-14T23:24:48.666Z,997.89
2018-09-14T23:25:48.658Z,997.88
2018-09-14T23:26:48.651Z,997.90
2018-09-14T23:27:48.645Z,997.99
2018-09-14T23:28:48.633Z,997.99
2018-09-14T23:29:48.632Z,998.00
2018-09-14T23:30:48.624Z,997.99
2018-09-14T23:31:48.620Z,998.00
2018-09-14T23:32:48.605Z,998.00
2018-09-14T23:33:48.597Z,997.99
2018-09-14T23:34:48.593Z,998.02
2018-09-14T23:35:48.585Z,997.99
2018-09-14T23:36:48.575Z,998.01
2018-09-14T23:37:48.571Z,998.02
2018-09-14T23:38:48.567Z,998.02
2018-09-14T23:39:48.553Z,998.01
2018-09-14T23:40:48.546Z,998.03
2018-09-14T23:41:48.540Z,998.05
2018-09-14T23:42:48.530Z,998.10
2018-09-14T23:43:48.525Z,998.11
2018-09-14T23:44:48.515Z,998.14
2018-09-14T23:45:48.510Z,998.14
2018-09-14T23:46:48.500Z,998.17
2018-09-14T23:47:48.492Z,998.23
2018-09-14T23:48:48.489Z,998.24
2018-09-14T23:49:48.476Z,998.21
2018-09-14T23:50:48.463Z,998.24
2018-09-14T23:51:48.462Z,998.20
2018-09-14T23:52:48.459Z,998.20
2018-09-14T23:53:48.440Z,998.21
2018-09-14T23:54:48.435Z,998.25
2018-09-14T23:55:48.431Z,998.25
2018-09-14T23:56:48.425Z,998.24
2018-09-14T23:57:48.423Z,998.22
2018-09-14T23:58:48.411Z,998.22
2018-09-14T23:59:48.401Z,998.25
